Time,TemperatureF,DewpointF,PressureIn,WindDirection,WindDirectionDegrees,WindSpeedMPH,WindSpeedGustMPH,Humidity,HourlyPrecipIn,Conditions,Clouds,dailyrainin,SoftwareType,DateUTC
2013-05-12 00:03:00,-999.0,-99.9,30.10,SSW,192,1.0,2.0,95,-99.99,,,-99.99,,2013-05-12 04:03:00,
2013-05-12 00:12:00,65.0,64.0,30.10,SSW,192,1.0,2.0,95,-99.99,,,-99.99,,2013-05-12 04:12:00,
2013-05-12 00:22:00,66.0,65.0,30.09,SSW,205,0.0,1.0,96,-99.99,,,-99.99,,2013-05-12 04:22:00,
2013-05-12 00:33:00,66.0,65.0,30.09,SSW,205,0.0,1.0,96,-99.99,,,-99.99,,2013-05-12 04:33:00,
2013-05-12 00:43:00,65.0,64.0,30.10,SW,233,1.0,1.0,96,-99.99,,,-99.99,,2013-05-12 04:43:00,
2013-05-12 00:52:00,65.0,64.0,30.10,SW,233,1.0,1.0,96,-99.99,,,-99.99,,2013-05-12 04:52:00,
2013-05-12 01:02:00,65.0,64.0,30.09,South,179,1.0,2.0,96,-99.99,,,-99.99,,2013-05-12 05:02:00,
2013-05-12 01:12:00,65.0,64.0,30.09,South,179,1.0,2.0,96,-99.99,,,-99.99,,2013-05-12 05:12:00,
2013-05-12 01:22:00,65.0,64.0,30.09,SSE,154,2.0,4.0,97,-99.99,,,-99.99,,2013-05-12 05:22:00,
2013-05-12 01:32:00,65.0,65.0,30.09,WSW,245,1.0,2.0,97,-99.99,,,-99.99,,2013-05-12 05:32:00,
2013-05-12 01:42:00,65.0,65.0,30.09,WSW,245,1.0,2.0,97,-99.99,,,-99.99,,2013-05-12 05:42:00,
2013-05-12 01:52:00,65.0,65.0,30.09,WSW,245,1.0,2.0,97,-99.99,,,-99.99,,2013-05-12 05:52:00,
2013-05-12 02:02:00,65.0,64.0,30.09,ESE,116,1.0,2.0,97,-99.99,,,-99.99,,2013-05-12 06:02:00,
2013-05-12 02:11:00,65.0,64.0,30.09,ESE,116,1.0,2.0,97,-99.99,,,-99.99,,2013-05-12 06:11:00,
2013-05-12 02:21:00,64.0,63.0,30.08,SSW,200,0.0,1.0,97,-99.99,,,-99.99,,2013-05-12 06:21:00,
2013-05-12 02:32:00,64.0,63.0,30.08,SSW,200,0.0,1.0,97,-99.99,,,-99.99,,2013-05-12 06:32:00,
2013-05-12 02:42:00,64.0,63.0,30.08,SSW,200,0.0,1.0,97,-99.99,,,-99.99,,2013-05-12 06:42:00,
2013-05-12 02:52:00,64.0,63.0,30.08,SSW,200,0.0,1.0,97,-99.99,,,-99.99,,2013-05-12 06:52:00,
2013-05-12 03:01:00,64.0,63.0,30.07,NNE,30,1.0,2.0,97,-99.99,,,-99.99,,2013-05-12 07:01:00,
2013-05-12 03:11:00,63.0,62.0,30.07,ENE,65,1.0,2.0,97,-99.99,,,-99.99,,2013-05-12 07:11:00,
2013-05-12 03:22:00,63.0,62.0,30.07,ENE,65,1.0,2.0,97,-99.99,,,-99.99,,2013-05-12 07:22:00,
2013-05-12 03:32:00,63.0,63.0,30.07,East,101,2.0,3.0,97,-99.99,,,-99.99,,2013-05-12 07:32:00,
2013-05-12 03:42:00,63.0,63.0,30.07,East,101,2.0,3.0,97,-99.99,,,-99.99,,2013-05-12 07:42:00,
2013-05-12 03:52:00,63.0,63.0,30.07,East,101,2.0,3.0,97,-99.99,,,-99.99,,2013-05-12 07:52:00,
2013-05-12 04:02:00,63.0,62.0,30.04,West,281,1.0,2.0,97,-99.99,,,-99.99,,2013-05-12 08:02:00,
2013-05-12 04:11:00,63.0,62.0,30.04,West,281,1.0,2.0,97,-99.99,,,-99.99,,2013-05-12 08:11:00,
2013-05-12 04:21:00,63.0,62.0,30.04,West,281,1.0,2.0,97,-99.99,,,-99.99,,2013-05-12 08:21:00,
2013-05-12 04:32:00,63.0,62.0,30.04,West,281,1.0,2.0,97,-99.99,,,-99.99,,2013-05-12 08:32:00,
2013-05-12 04:42:00,63.0,62.0,30.04,NW,309,2.0,2.0,97,-99.99,,,-99.99,,2013-05-12 08:42:00,
2013-05-12 04:53:00,63.0,62.0,30.04,NW,309,2.0,2.0,97,-99.99,,,-99.99,,2013-05-12 08:53:00,
2013-05-12 05:01:00,63.0,63.0,30.04,NW,307,2.0,3.0,98,-99.99,,,-99.99,,2013-05-12 09:01:00,
2013-05-12 05:11:00,63.0,63.0,30.04,NW,307,2.0,3.0,98,-99.99,,,-99.99,,2013-05-12 09:11:00,
2013-05-12 05:21:00,63.0,62.0,30.02,East,81,1.0,2.0,97,-99.99,,,-99.99,,2013-05-12 09:21:00,
2013-05-12 05:33:00,63.0,62.0,30.02,East,81,1.0,2.0,97,-99.99,,,-99.99,,2013-05-12 09:33:00,
2013-05-12 05:43:00,62.0,62.0,30.02,SE,129,1.0,3.0,98,-99.99,,,-99.99,,2013-05-12 09:43:00,
2013-05-12 05:53:00,64.0,63.0,29.99,SE,133,4.0,8.0,98,-99.99,,,-99.99,,2013-05-12 09:53:00,
2013-05-12 06:03:00,64.0,63.0,29.99,SE,133,4.0,8.0,98,-99.99,,,-99.99,,2013-05-12 10:03:00,
2013-05-12 06:12:00,64.0,63.0,29.99,SE,133,4.0,8.0,98,-99.99,,,-99.99,,2013-05-12 10:12:00,
2013-05-12 06:23:00,68.0,68.0,29.98,SSE,162,4.0,8.0,98,-99.99,,,-99.99,,2013-05-12 10:23:00,
2013-05-12 06:33:00,68.0,68.0,29.98,SSE,162,4.0,8.0,98,-99.99,,,-99.99,,2013-05-12 10:33:00,
2013-05-12 06:42:00,68.0,68.0,30.01,WSW,238,2.0,4.0,98,-99.99,,,-99.99,,2013-05-12 10:42:00,
2013-05-12 06:52:00,68.0,68.0,30.01,WSW,238,2.0,4.0,98,-99.99,,,-99.99,,2013-05-12 10:52:00,
2013-05-12 07:03:00,67.0,67.0,30.01,SSE,159,3.0,4.0,98,-99.99,,,-99.99,,2013-05-12 11:03:00,
2013-05-12 07:12:00,67.0,67.0,30.01,SSE,159,3.0,4.0,98,-99.99,,,-99.99,,2013-05-12 11:12:00,
2013-05-12 07:22:00,65.0,65.0,30.04,NNW,341,3.0,4.0,98,-99.99,,,-99.99,,2013-05-12 11:22:00,
2013-05-12 07:32:00,65.0,65.0,30.05,NNW,335,2.0,3.0,98,-99.99,,,-99.99,,2013-05-12 11:32:00,
2013-05-12 07:42:00,65.0,65.0,30.05,NNW,335,2.0,3.0,98,-99.99,,,-99.99,,2013-05-12 11:42:00,
2013-05-12 07:52:00,65.0,65.0,30.05,NNW,335,2.0,3.0,98,-99.99,,,-99.99,,2013-05-12 11:52:00,
2013-05-12 08:02:00,65.0,65.0,30.05,SW,236,2.0,3.0,98,-99.99,,,-99.99,,2013-05-12 12:02:00,
2013-05-12 08:11:00,65.0,65.0,30.05,SW,236,2.0,3.0,98,-99.99,,,-99.99,,2013-05-12 12:11:00,
2013-05-12 08:22:00,71.0,70.0,30.06,East,94,1.0,2.0,98,-99.99,,,-99.99,,2013-05-12 12:22:00,
2013-05-12 08:32:00,71.0,70.0,30.06,East,94,1.0,2.0,98,-99.99,,,-99.99,,2013-05-12 12:32:00,
2013-05-12 08:42:00,71.0,70.0,30.06,East,94,1.0,2.0,98,-99.99,,,-99.99,,2013-05-12 12:42:00,
2013-05-12 08:52:00,71.0,70.0,30.06,East,94,1.0,2.0,98,-99.99,,,-99.99,,2013-05-12 12:52:00,
2013-05-12 09:02:00,72.0,71.0,30.07,SSE,156,1.0,2.0,98,-99.99,,,-99.99,,2013-05-12 13:02:00,
2013-05-12 09:11:00,72.0,71.0,30.07,SSE,156,1.0,2.0,98,-99.99,,,-99.99,,2013-05-12 13:11:00,
2013-05-12 09:21:00,74.0,73.0,30.07,SSE,157,1.0,3.0,95,-99.99,,,-99.99,,2013-05-12 13:21:00,
2013-05-12 09:32:00,74.0,73.0,30.07,SSE,157,1.0,3.0,95,-99.99,,,-99.99,,2013-05-12 13:32:00,
2013-05-12 09:42:00,76.0,73.0,30.07,SE,139,2.0,4.0,89,-99.99,,,-99.99,,2013-05-12 13:42:00,
2013-05-12 09:52:00,76.0,73.0,30.07,SE,139,2.0,4.0,89,-99.99,,,-99.99,,2013-05-12 13:52:00,
2013-05-12 10:02:00,79.0,74.0,30.08,South,170,2.0,4.0,85,-99.99,,,-99.99,,2013-05-12 14:02:00,
2013-05-12 10:11:00,80.0,75.0,30.08,South,181,4.0,8.0,81,-99.99,,,-99.99,,2013-05-12 14:11:00,
2013-05-12 10:21:00,80.0,75.0,30.08,South,181,4.0,8.0,81,-99.99,,,-99.99,,2013-05-12 14:21:00,
2013-05-12 10:32:00,80.0,75.0,30.08,South,181,4.0,8.0,81,-99.99,,,-99.99,,2013-05-12 14:32:00,
2013-05-12 10:42:00,81.0,74.0,30.08,SSW,193,5.0,9.0,78,-99.99,,,-99.99,,2013-05-12 14:42:00,
2013-05-12 10:52:00,81.0,74.0,30.08,SSW,193,5.0,9.0,78,-99.99,,,-99.99,,2013-05-12 14:52:00,
2013-05-12 11:01:00,83.0,73.0,30.08,South,190,6.0,10.0,72,-99.99,,,-99.99,,2013-05-12 15:01:00,
2013-05-12 11:11:00,83.0,73.0,30.08,South,190,6.0,10.0,72,-99.99,,,-99.99,,2013-05-12 15:11:00,
2013-05-12 11:21:00,82.0,73.0,30.08,WSW,241,7.0,14.0,73,-99.99,,,-99.99,,2013-05-12 15:21:00,
2013-05-12 11:34:00,82.0,73.0,30.08,WSW,241,7.0,14.0,73,-99.99,,,-99.99,,2013-05-12 15:34:00,
2013-05-12 11:42:00,80.0,74.0,30.09,SW,223,6.0,12.0,80,-99.99,,,-99.99,,2013-05-12 15:42:00,
2013-05-12 11:53:00,83.0,74.0,30.08,SW,223,7.0,15.0,73,-99.99,,,-99.99,,2013-05-12 15:53:00,
2013-05-12 12:02:00,83.0,74.0,30.08,SW,223,7.0,15.0,73,-99.99,,,-99.99,,2013-05-12 16:02:00,
2013-05-12 12:13:00,83.0,74.0,30.08,SW,223,7.0,15.0,73,-99.99,,,-99.99,,2013-05-12 16:13:00,
2013-05-12 12:23:00,84.0,73.0,30.08,SW,235,9.0,17.0,69,-99.99,,,-99.99,,2013-05-12 16:23:00,
2013-05-12 12:33:00,84.0,73.0,30.08,SW,235,9.0,17.0,69,-99.99,,,-99.99,,2013-05-12 16:33:00,
2013-05-12 12:42:00,85.0,73.0,30.08,WSW,244,8.0,15.0,65,-99.99,,,-99.99,,2013-05-12 16:42:00,
2013-05-12 12:53:00,85.0,73.0,30.08,WSW,244,8.0,15.0,65,-99.99,,,-99.99,,2013-05-12 16:53:00,
2013-05-12 13:02:00,85.0,73.0,30.08,WSW,244,8.0,15.0,65,-99.99,,,-99.99,,2013-05-12 17:02:00,
2013-05-12 13:12:00,85.0,73.0,30.08,WSW,244,8.0,15.0,65,-99.99,,,-99.99,,2013-05-12 17:12:00,
2013-05-12 13:22:00,84.0,73.0,30.07,SW,223,8.0,14.0,69,-99.99,,,-99.99,,2013-05-12 17:22:00,
2013-05-12 13:32:00,84.0,73.0,30.07,SW,223,8.0,14.0,69,-99.99,,,-99.99,,2013-05-12 17:32:00,
2013-05-12 13:42:00,83.0,73.0,30.06,WSW,240,9.0,18.0,72,-99.99,,,-99.99,,2013-05-12 17:42:00,
2013-05-12 13:53:00,83.0,73.0,30.06,WSW,240,9.0,18.0,72,-99.99,,,-99.99,,2013-05-12 17:53:00,
2013-05-12 14:01:00,85.0,73.0,30.05,WSW,241,9.0,15.0,67,-99.99,,,-99.99,,2013-05-12 18:01:00,
2013-05-12 14:12:00,85.0,73.0,30.05,WSW,241,9.0,15.0,67,-99.99,,,-99.99,,2013-05-12 18:12:00,
2013-05-12 14:22:00,85.0,73.0,30.04,WSW,249,8.0,18.0,66,-99.99,,,-99.99,,2013-05-12 18:22:00,
2013-05-12 14:32:00,85.0,73.0,30.04,WSW,240,9.0,16.0,66,-99.99,,,-99.99,,2013-05-12 18:32:00,
2013-05-12 14:42:00,85.0,73.0,30.04,WSW,240,9.0,16.0,66,-99.99,,,-99.99,,2013-05-12 18:42:00,
2013-05-12 14:52:00,85.0,73.0,30.04,WSW,240,9.0,16.0,66,-99.99,,,-99.99,,2013-05-12 18:52:00,
2013-05-12 15:01:00,84.0,72.0,30.04,West,260,11.0,17.0,66,-99.99,,,-99.99,,2013-05-12 19:01:00,
2013-05-12 15:11:00,84.0,72.0,30.04,West,260,11.0,17.0,66,-99.99,,,-99.99,,2013-05-12 19:11:00,
2013-05-12 15:22:00,85.0,73.0,30.04,WSW,240,10.0,17.0,64,-99.99,,,-99.99,,2013-05-12 19:22:00,
2013-05-12 15:32:00,85.0,73.0,30.04,WSW,240,10.0,17.0,64,-99.99,,,-99.99,,2013-05-12 19:32:00,
2013-05-12 15:42:00,85.0,72.0,30.04,WSW,242,9.0,15.0,63,-99.99,,,-99.99,,2013-05-12 19:42:00,
2013-05-12 15:52:00,85.0,72.0,30.04,WSW,242,9.0,15.0,63,-99.99,,,-99.99,,2013-05-12 19:52:00,
2013-05-12 16:02:00,85.0,71.0,30.04,West,259,10.0,17.0,61,-99.99,,,-99.99,,2013-05-12 20:02:00,
2013-05-12 16:11:00,84.0,71.0,30.04,West,262,9.0,16.0,63,-99.99,,,-99.99,,2013-05-12 20:11:00,
2013-05-12 16:22:00,84.0,71.0,30.04,West,262,9.0,16.0,63,-99.99,,,-99.99,,2013-05-12 20:22:00,
2013-05-12 16:32:00,84.0,71.0,30.04,West,262,9.0,16.0,63,-99.99,,,-99.99,,2013-05-12 20:32:00,
2013-05-12 16:42:00,84.0,71.0,30.04,West,267,10.0,17.0,64,-99.99,,,-99.99,,2013-05-12 20:42:00,
2013-05-12 16:52:00,84.0,71.0,30.04,West,267,10.0,17.0,64,-99.99,,,-99.99,,2013-05-12 20:52:00,
2013-05-12 17:01:00,84.0,70.0,30.03,West,270,9.0,16.0,61,-99.99,,,-99.99,,2013-05-12 21:01:00,
2013-05-12 17:11:00,84.0,70.0,30.03,West,270,9.0,16.0,61,-99.99,,,-99.99,,2013-05-12 21:11:00,
2013-05-12 17:21:00,84.0,70.0,30.03,West,270,9.0,16.0,61,-99.99,,,-99.99,,2013-05-12 21:21:00,
2013-05-12 17:33:00,84.0,70.0,30.03,West,270,9.0,16.0,61,-99.99,,,-99.99,,2013-05-12 21:33:00,
2013-05-12 17:42:00,85.0,70.0,30.03,West,265,9.0,15.0,60,-99.99,,,-99.99,,2013-05-12 21:42:00,
2013-05-12 17:53:00,85.0,70.0,30.03,West,265,9.0,15.0,60,-99.99,,,-99.99,,2013-05-12 21:53:00,
2013-05-12 18:03:00,84.0,70.0,30.03,West,264,9.0,18.0,61,-99.99,,,-99.99,,2013-05-12 22:03:00,
2013-05-12 18:12:00,84.0,70.0,30.03,West,264,9.0,18.0,61,-99.99,,,-99.99,,2013-05-12 22:12:00,
2013-05-12 18:23:00,83.0,71.0,30.03,West,269,9.0,15.0,68,-99.99,,,-99.99,,2013-05-12 22:23:00,
2013-05-12 18:33:00,83.0,71.0,30.03,West,269,9.0,15.0,68,-99.99,,,-99.99,,2013-05-12 22:33:00,
2013-05-12 18:42:00,82.0,71.0,30.03,West,272,8.0,13.0,69,-99.99,,,-99.99,,2013-05-12 22:42:00,
2013-05-12 18:52:00,81.0,72.0,30.03,West,276,6.0,10.0,72,-99.99,,,-99.99,,2013-05-12 22:52:00,
2013-05-12 19:02:00,81.0,72.0,30.03,West,276,6.0,10.0,72,-99.99,,,-99.99,,2013-05-12 23:02:00,
2013-05-12 19:12:00,81.0,72.0,30.03,West,276,6.0,10.0,72,-99.99,,,-99.99,,2013-05-12 23:12:00,
2013-05-12 19:22:00,80.0,71.0,30.04,West,281,5.0,11.0,73,-99.99,,,-99.99,,2013-05-12 23:22:00,
2013-05-12 19:32:00,80.0,71.0,30.04,West,281,5.0,11.0,73,-99.99,,,-99.99,,2013-05-12 23:32:00,
2013-05-12 19:42:00,80.0,72.0,30.04,WNW,283,5.0,9.0,74,-99.99,,,-99.99,,2013-05-12 23:42:00,
2013-05-12 19:52:00,80.0,72.0,30.04,WNW,283,5.0,9.0,74,-99.99,,,-99.99,,2013-05-12 23:52:00,
2013-05-12 20:01:00,81.0,72.0,30.05,WNW,285,5.0,10.0,74,-99.99,,,-99.99,,2013-05-13 00:01:00,
2013-05-12 20:11:00,81.0,72.0,30.05,WNW,285,5.0,10.0,74,-99.99,,,-99.99,,2013-05-13 00:11:00,
2013-05-12 20:22:00,79.0,71.0,30.06,WNW,291,4.0,7.0,78,-99.99,,,-99.99,,2013-05-13 00:22:00,
2013-05-12 20:32:00,78.0,72.0,30.06,WNW,290,4.0,7.0,79,-99.99,,,-99.99,,2013-05-13 00:32:00,
2013-05-12 20:42:00,78.0,72.0,30.06,WNW,290,4.0,7.0,79,-99.99,,,-99.99,,2013-05-13 00:42:00,
2013-05-12 20:52:00,78.0,72.0,30.06,WNW,290,4.0,7.0,79,-99.99,,,-99.99,,2013-05-13 00:52:00,
2013-05-12 21:01:00,77.0,71.0,30.06,WNW,286,3.0,5.0,81,-99.99,,,-99.99,,2013-05-13 01:01:00,
2013-05-12 21:11:00,77.0,71.0,30.06,WNW,286,3.0,5.0,81,-99.99,,,-99.99,,2013-05-13 01:11:00,
2013-05-12 21:22:00,73.0,70.0,30.08,West,276,2.0,3.0,89,-99.99,,,-99.99,,2013-05-13 01:22:00,
2013-05-12 21:32:00,73.0,70.0,30.08,West,276,2.0,3.0,89,-99.99,,,-99.99,,2013-05-13 01:32:00,
2013-05-12 21:42:00,73.0,70.0,30.08,West,276,2.0,3.0,89,-99.99,,,-99.99,,2013-05-13 01:42:00,
2013-05-12 21:52:00,73.0,70.0,30.08,West,276,2.0,3.0,89,-99.99,,,-99.99,,2013-05-13 01:52:00,
2013-05-12 22:02:00,71.0,68.0,30.08,West,272,2.0,4.0,91,-99.99,,,-99.99,,2013-05-13 02:02:00,
2013-05-12 22:11:00,71.0,68.0,30.08,West,272,2.0,4.0,91,-99.99,,,-99.99,,2013-05-13 02:11:00,
2013-05-12 22:21:00,69.0,67.0,30.09,West,280,1.0,3.0,93,-99.99,,,-99.99,,2013-05-13 02:21:00,
2013-05-12 22:32:00,69.0,67.0,30.09,West,280,1.0,3.0,93,-99.99,,,-99.99,,2013-05-13 02:32:00,
2013-05-12 22:42:00,68.0,67.0,30.09,SSW,205,1.0,1.0,94,-99.99,,,-99.99,,2013-05-13 02:42:00,
2013-05-12 22:52:00,68.0,67.0,30.09,SSW,205,1.0,1.0,94,-99.99,,,-99.99,,2013-05-13 02:52:00,
2013-05-12 23:02:00,68.0,66.0,30.10,SW,214,1.0,1.0,94,-99.99,,,-99.99,,2013-05-13 03:02:00,
2013-05-12 23:11:00,67.0,66.0,30.10,WSW,257,1.0,2.0,95,-99.99,,,-99.99,,2013-05-13 03:11:00,
2013-05-12 23:22:00,67.0,66.0,30.10,WSW,257,1.0,2.0,95,-99.99,,,-99.99,,2013-05-13 03:22:00,
2013-05-12 23:33:00,67.0,66.0,30.10,WSW,257,1.0,2.0,95,-99.99,,,-99.99,,2013-05-13 03:33:00,
2013-05-12 23:42:00,66.0,65.0,30.10,SSW,192,0.0,1.0,95,-99.99,,,-99.99,,2013-05-13 03:42:00,
2013-05-12 23:53:00,66.0,65.0,30.10,SSW,192,0.0,1.0,95,-99.99,,,-99.99,,2013-05-13 03:53:00,